Time;durP1;ratioP1;P1;durP2;ratioP2;P2;SDS_P1;SDS_P2;PMS_P1;PMS_P2;Temp;Humidity;BMP_temperature;BMP_pressure;BME280_temperature;BME280_humidity;BME280_pressure;Samples;Min_cycle;Max_cycle;Signal;HPM_P1;HPM_P2
2022/04/14 00:01:32;;;;;;;;;18.25;15.00;;;;;-146.67;100.00;57155.34;5082642;27;62189;-75
2022/04/14 00:03:58;;;;;;;;;15.00;15.00;;;;;-146.67;100.00;57155.34;5082391;27;62044;-75
2022/04/14 00:06:23;;;;;;;;;15.75;14.00;;;;;-146.67;100.00;57155.34;5082935;28;61932;-75
2022/04/14 00:08:52;;;;;;;;;18.00;15.25;;;;;-146.67;100.00;57155.34;5081786;28;62944;-75
2022/04/14 00:11:18;;;;;;;;;21.00;20.50;;;;;-146.67;100.00;57155.34;5082359;28;61855;-75
2022/04/14 00:13:43;;;;;;;;;14.75;14.75;;;;;-146.67;100.00;57155.34;5083697;27;62004;-75
2022/04/14 00:16:09;;;;;;;;;16.25;15.75;;;;;-146.67;100.00;57155.34;5083263;27;61713;-75
2022/04/14 00:18:35;;;;;;;;;18.25;18.25;;;;;-146.67;100.00;57155.34;5081724;28;61904;-75
2022/04/14 00:21:00;;;;;;;;;18.75;15.50;;;;;-146.67;100.00;57155.34;5082488;28;61726;-75
2022/04/14 00:23:26;;;;;;;;;16.75;13.50;;;;;-146.67;100.00;57155.34;5082374;27;61869;-75
2022/04/14 00:25:51;;;;;;;;;16.00;15.00;;;;;-146.67;100.00;57155.34;5077794;28;61986;-75
2022/04/14 00:28:17;;;;;;;;;15.00;15.00;;;;;-146.67;100.00;57155.34;5061741;28;61728;-75
2022/04/14 00:30:43;;;;;;;;;21.00;16.75;;;;;-146.67;100.00;57155.34;5086467;27;62058;-75
2022/04/14 00:33:08;;;;;;;;;18.75;14.50;;;;;-146.67;100.00;57155.34;5082632;28;61847;-75
2022/04/14 00:35:34;;;;;;;;;19.50;17.75;;;;;-146.67;100.00;57155.34;5081839;27;61983;-75
2022/04/14 00:37:59;;;;;;;;;22.75;18.75;;;;;-146.67;100.00;57155.34;5081673;27;61819;-75
2022/04/14 00:40:25;;;;;;;;;14.75;14.00;;;;;-146.67;100.00;57155.34;5081851;28;61982;-75
2022/04/14 00:42:50;;;;;;;;;18.75;16.00;;;;;-146.67;100.00;57155.34;5081986;27;61892;-75
2022/04/14 00:45:16;;;;;;;;;17.50;15.75;;;;;-146.67;100.00;57155.34;5100784;27;61741;-75
2022/04/14 00:47:41;;;;;;;;;21.25;18.50;;;;;-146.67;100.00;57155.34;5094633;27;61903;-75
2022/04/14 00:50:07;;;;;;;;;25.50;21.75;;;;;-146.67;100.00;57155.34;5082116;28;61845;-75
2022/04/14 00:52:33;;;;;;;;;29.50;21.75;;;;;-146.67;100.00;57155.34;5080505;28;62273;-75
2022/04/14 00:54:59;;;;;;;;;17.00;16.00;;;;;-146.67;100.00;57155.34;5080853;28;61801;-75
2022/04/14 00:57:25;;;;;;;;;19.25;17.75;;;;;-146.67;100.00;57155.34;5081288;28;61833;-75
2022/04/14 00:59:50;;;;;;;;;17.00;16.00;;;;;-146.67;100.00;57155.34;5081963;27;61881;-75
2022/04/14 01:02:16;;;;;;;;;15.50;13.50;;;;;-146.67;100.00;57155.34;5081914;27;61797;-75
2022/04/14 01:04:43;;;;;;;;;16.50;16.25;;;;;-146.67;100.00;57155.34;5081667;28;62155;-75
2022/04/14 01:07:09;;;;;;;;;17.00;16.00;;;;;-146.67;100.00;57155.34;5097022;27;64129;-75
2022/04/14 01:09:36;;;;;;;;;17.00;15.50;;;;;-146.67;100.00;57155.34;5092935;27;61996;-75
2022/04/14 01:12:03;;;;;;;;;14.75;13.25;;;;;-146.67;100.00;57155.34;5085525;27;62216;-75
2022/04/14 01:14:35;;;;;;;;;14.75;12.00;;;;;-146.67;100.00;57155.34;5101753;27;61756;-75
2022/04/14 01:17:03;;;;;;;;;16.50;13.50;;;;;-146.67;100.00;57155.34;5096476;27;61972;-75
2022/04/14 01:19:29;;;;;;;;;19.00;17.00;;;;;-146.67;100.00;57155.34;5100978;27;61819;-75
2022/04/14 01:22:00;;;;;;;;;12.00;10.00;;;;;-146.67;100.00;57155.34;5085242;27;62046;-75
2022/04/14 01:24:26;;;;;;;;;13.00;10.25;;;;;-146.67;100.00;57155.34;5085352;28;61813;-75
2022/04/14 01:26:53;;;;;;;;;17.50;12.75;;;;;-146.67;100.00;57155.34;5084548;28;61913;-75
2022/04/14 01:29:24;;;;;;;;;20.00;12.75;;;;;-146.67;100.00;57155.34;5090802;27;61898;-75
2022/04/14 01:31:51;;;;;;;;;10.00;10.00;;;;;-146.67;100.00;57155.34;5085401;27;61758;-75
2022/04/14 01:34:16;;;;;;;;;9.00;9.00;;;;;-146.67;100.00;57155.34;5085426;28;61966;-75
2022/04/14 01:36:42;;;;;;;;;9.25;9.25;;;;;-146.67;100.00;57155.34;5084093;27;62014;-75
2022/04/14 01:39:12;;;;;;;;;15.00;13.25;;;;;-146.67;100.00;57155.34;5084774;28;61950;-75
2022/04/14 01:41:39;;;;;;;;;12.25;11.25;;;;;-146.67;100.00;57155.34;5085337;28;61878;-75
2022/04/14 01:44:05;;;;;;;;;11.50;10.00;;;;;-146.67;100.00;57155.34;5102166;27;61954;-75
2022/04/14 01:46:31;;;;;;;;;13.75;13.00;;;;;-146.67;100.00;57155.34;5097167;27;62905;-75
2022/04/14 01:48:58;;;;;;;;;13.50;13.50;;;;;-146.67;100.00;57155.34;5084689;28;61941;-75
2022/04/14 01:51:23;;;;;;;;;13.25;10.00;;;;;-146.67;100.00;57155.34;5064682;28;62078;-75
2022/04/14 01:53:49;;;;;;;;;13.50;12.00;;;;;-146.67;100.00;57155.34;5064993;28;61763;-75
2022/04/14 01:56:14;;;;;;;;;13.00;13.00;;;;;-146.67;100.00;57155.34;5083315;28;62761;-75
2022/04/14 01:58:40;;;;;;;;;14.00;11.00;;;;;-146.67;100.00;57155.34;5085129;27;61839;-75
2022/04/14 02:01:05;;;;;;;;;10.75;10.75;;;;;-146.67;100.00;57155.34;5084453;27;61761;-76
2022/04/14 02:03:31;;;;;;;;;10.75;9.75;;;;;-146.67;100.00;57155.34;5084807;27;62124;-76
2022/04/14 02:05:56;;;;;;;;;14.25;12.25;;;;;-146.67;100.00;57155.34;5084158;27;62403;-76
2022/04/14 02:08:21;;;;;;;;;11.50;10.25;;;;;-146.67;100.00;57155.34;5083924;28;61888;-78
2022/04/14 02:10:47;;;;;;;;;13.50;12.75;;;;;-146.67;100.00;57155.34;5083331;28;61838;-76
2022/04/14 02:13:12;;;;;;;;;14.25;10.50;;;;;-146.67;100.00;57155.34;5093089;27;61970;-76
2022/04/14 02:15:38;;;;;;;;;13.25;8.00;;;;;-146.67;100.00;57155.34;5089341;27;61774;-76
2022/04/14 02:18:03;;;;;;;;;12.00;11.00;;;;;-146.67;100.00;57155.34;5083493;27;61739;-76
2022/04/14 02:20:29;;;;;;;;;15.25;12.75;;;;;-146.67;100.00;57155.34;5082597;27;61885;-76
2022/04/14 02:22:54;;;;;;;;;11.00;11.00;;;;;-146.67;100.00;57155.34;5083408;28;62142;-76
2022/04/14 02:25:20;;;;;;;;;14.25;10.25;;;;;-146.67;100.00;57155.34;5082951;27;62044;-76
2022/04/14 02:27:46;;;;;;;;;15.00;12.00;;;;;-146.67;100.00;57155.34;5090293;27;62118;-76
2022/04/14 02:30:12;;;;;;;;;13.00;10.25;;;;;-146.67;100.00;57155.34;5092159;27;61774;-76
2022/04/14 02:32:37;;;;;;;;;15.50;13.50;;;;;-146.67;100.00;57155.34;5083332;27;61797;-76
2022/04/14 02:35:04;;;;;;;;;14.00;10.50;;;;;-146.67;100.00;57155.34;5082328;28;62460;-76
2022/04/14 02:37:29;;;;;;;;;11.75;11.00;;;;;-146.67;100.00;57155.34;5081380;27;62512;-76
2022/04/14 02:39:55;;;;;;;;;13.75;13.00;;;;;-146.67;100.00;57155.34;5082646;27;61970;-76
2022/04/14 02:42:20;;;;;;;;;12.25;12.00;;;;;-146.67;100.00;57155.34;5083489;28;61834;-76
2022/04/14 02:44:46;;;;;;;;;15.00;12.25;;;;;-146.67;100.00;57155.34;5082237;27;62511;-76
2022/04/14 02:47:11;;;;;;;;;10.00;10.00;;;;;-146.67;100.00;57155.34;5082932;27;62000;-76
2022/04/14 02:49:36;;;;;;;;;12.25;11.50;;;;;-146.67;100.00;57155.34;5082385;27;61843;-76
2022/04/14 02:52:02;;;;;;;;;14.00;11.25;;;;;-146.67;100.00;57155.34;5082767;27;62389;-76
2022/04/14 02:54:27;;;;;;;;;16.00;12.00;;;;;-146.67;100.00;57155.34;5082439;28;62695;-76
2022/04/14 02:56:53;;;;;;;;;12.50;12.25;;;;;-146.67;100.00;57155.34;5082297;27;61900;-76
2022/04/14 02:59:18;;;;;;;;;14.75;13.50;;;;;-146.67;100.00;57155.34;5095560;27;62712;-76
2022/04/14 03:01:44;;;;;;;;;14.50;12.50;;;;;-146.67;100.00;57155.34;5076006;28;61946;-76
2022/04/14 03:04:09;;;;;;;;;13.75;13.75;;;;;-146.67;100.00;57155.34;5037028;28;1266075;-74
2022/04/14 03:06:35;;;;;;;;;15.50;15.00;;;;;-146.67;100.00;57155.34;5100512;27;61781;-74
2022/04/14 03:09:00;;;;;;;;;15.00;15.00;;;;;-146.67;100.00;57155.34;5099393;27;61760;-75
2022/04/14 03:11:26;;;;;;;;;16.75;14.00;;;;;-146.67;100.00;57155.34;5083927;27;62183;-74
2022/04/14 03:13:51;;;;;;;;;13.50;13.50;;;;;-146.67;100.00;57155.34;5097362;27;63520;-74
2022/04/14 03:16:16;;;;;;;;;12.50;11.00;;;;;-146.67;100.00;57155.34;5094104;27;62498;-75
2022/04/14 03:18:42;;;;;;;;;20.00;17.00;;;;;-146.67;100.00;57155.34;5083171;28;61873;-74
2022/04/14 03:21:07;;;;;;;;;17.50;15.00;;;;;-146.67;100.00;57155.34;5094693;27;61999;-74
2022/04/14 03:23:33;;;;;;;;;20.75;18.00;;;;;-146.67;100.00;57155.34;5081257;28;63721;-74
2022/04/14 03:25:58;;;;;;;;;19.00;17.00;;;;;-146.67;100.00;57155.34;5083618;27;62027;-74
2022/04/14 03:28:24;;;;;;;;;21.50;16.75;;;;;-146.67;100.00;57155.34;5085402;27;61988;-74
2022/04/14 03:30:49;;;;;;;;;21.00;17.25;;;;;-146.67;100.00;57155.34;5099321;27;61814;-75
2022/04/14 03:33:14;;;;;;;;;29.50;27.25;;;;;-146.67;100.00;57155.34;5081407;27;62901;-74
2022/04/14 03:35:40;;;;;;;;;22.25;20.00;;;;;-146.67;100.00;57155.34;5082906;28;61961;-74
2022/04/14 03:38:05;;;;;;;;;21.75;20.25;;;;;-146.67;100.00;57155.34;5083018;27;62519;-74
2022/04/14 03:40:31;;;;;;;;;20.25;18.25;;;;;-146.67;100.00;57155.34;5083154;28;62010;-74
2022/04/14 03:42:56;;;;;;;;;18.00;17.00;;;;;-146.67;100.00;57155.34;5092361;27;61833;-74
2022/04/14 03:45:21;;;;;;;;;20.00;17.50;;;;;-146.67;100.00;57155.34;5091550;27;61737;-74
2022/04/14 03:47:47;;;;;;;;;21.75;19.25;;;;;-146.67;100.00;57155.34;5083149;27;61726;-74
2022/04/14 03:50:12;;;;;;;;;24.25;22.25;;;;;-146.67;100.00;57155.34;5081356;28;61703;-75
2022/04/14 03:52:38;;;;;;;;;20.50;20.50;;;;;-146.67;100.00;57155.34;5082586;27;61676;-74
2022/04/14 03:55:05;;;;;;;;;24.25;21.50;;;;;-146.67;100.00;57155.34;5090249;27;61722;-75
2022/04/14 03:57:30;;;;;;;;;23.75;19.75;;;;;-146.67;100.00;57155.34;5103286;27;61712;-74
2022/04/14 03:59:55;;;;;;;;;20.75;18.75;;;;;-146.67;100.00;57155.34;5095767;27;61784;-74
2022/04/14 04:02:21;;;;;;;;;22.00;18.50;;;;;-146.67;100.00;57155.34;5081985;27;62733;-74
2022/04/14 04:04:46;;;;;;;;;22.50;19.00;;;;;-146.67;100.00;57155.34;5082537;27;62131;-75
2022/04/14 04:07:12;;;;;;;;;20.00;20.00;;;;;-146.67;100.00;57155.34;5098601;27;62400;-74
2022/04/14 04:09:38;;;;;;;;;20.25;18.50;;;;;-146.67;100.00;57155.34;5082619;27;62166;-74
2022/04/14 04:12:04;;;;;;;;;23.00;19.75;;;;;-146.67;100.00;57155.34;5082457;28;62235;-74
2022/04/14 04:14:30;;;;;;;;;23.75;22.00;;;;;-146.67;100.00;57155.34;5097861;27;61997;-75
2022/04/14 04:16:55;;;;;;;;;22.75;22.00;;;;;-146.67;100.00;57155.34;5082655;27;61911;-75
2022/04/14 04:19:21;;;;;;;;;23.50;22.25;;;;;-146.67;100.00;57155.34;5080791;28;61845;-74
2022/04/14 04:21:46;;;;;;;;;21.00;20.25;;;;;-146.67;100.00;57155.34;5082068;28;61991;-74
2022/04/14 04:24:12;;;;;;;;;18.50;17.00;;;;;-146.67;100.00;57155.34;5085460;27;61807;-74
2022/04/14 04:26:37;;;;;;;;;19.00;18.00;;;;;-146.67;100.00;57155.34;5082466;28;62187;-75
2022/04/14 04:29:03;;;;;;;;;22.25;21.25;;;;;-146.67;100.00;57155.34;5082731;27;61846;-74
2022/04/14 04:31:28;;;;;;;;;24.25;17.50;;;;;-146.67;100.00;57155.34;5081383;27;62065;-74
2022/04/14 04:33:53;;;;;;;;;21.50;19.25;;;;;-146.67;100.00;57155.34;5082500;27;61781;-74
2022/04/14 04:36:19;;;;;;;;;19.00;17.75;;;;;-146.67;100.00;57155.34;5073340;27;62061;-74
2022/04/14 04:38:44;;;;;;;;;20.75;20.75;;;;;-146.67;100.00;57155.34;5114287;27;62503;-74
2022/04/14 04:41:10;;;;;;;;;13.25;13.00;;;;;-146.67;100.00;57155.34;5081720;27;61904;-74
2022/04/14 04:43:36;;;;;;;;;24.50;19.25;;;;;-146.67;100.00;57155.34;5082088;27;61808;-75
2022/04/14 04:46:01;;;;;;;;;33.75;17.00;;;;;-146.67;100.00;57155.34;5080618;28;61920;-75
2022/04/14 04:48:27;;;;;;;;;18.50;15.00;;;;;-146.67;100.00;57155.34;5082391;28;61904;-74
2022/04/14 04:50:53;;;;;;;;;27.75;18.00;;;;;-146.67;100.00;57155.34;5081236;28;62836;-74
2022/04/14 04:53:19;;;;;;;;;18.25;17.25;;;;;-146.67;100.00;57155.34;5083050;27;61889;-74
2022/04/14 04:55:44;;;;;;;;;21.25;17.75;;;;;-146.67;100.00;57155.34;5087993;27;62038;-74
2022/04/14 04:58:10;;;;;;;;;26.00;22.50;;;;;-146.67;100.00;57155.34;5097784;27;61871;-74
2022/04/14 05:00:35;;;;;;;;;19.00;18.50;;;;;-146.67;100.00;57155.34;5080755;28;61932;-74
2022/04/14 05:03:01;;;;;;;;;21.00;18.00;;;;;-146.67;100.00;57155.34;5096339;27;61948;-74
2022/04/14 05:05:26;;;;;;;;;21.25;16.75;;;;;-146.67;100.00;57155.34;5089978;27;61889;-75
2022/04/14 05:07:52;;;;;;;;;19.50;15.00;;;;;-146.67;100.00;57155.34;5082125;28;61892;-74
2022/04/14 05:10:17;;;;;;;;;21.25;18.50;;;;;-146.67;100.00;57155.34;5081158;28;61718;-74
2022/04/14 05:12:43;;;;;;;;;21.00;18.25;;;;;-146.67;100.00;57155.34;5081749;28;61656;-76
2022/04/14 05:15:09;;;;;;;;;19.25;15.75;;;;;-146.67;100.00;57155.34;5087696;27;61730;-76
2022/04/14 05:17:34;;;;;;;;;21.00;19.00;;;;;-146.67;100.00;57155.34;5095170;27;62161;-76
2022/04/14 05:20:00;;;;;;;;;22.75;17.25;;;;;-146.67;100.00;57155.34;5084544;27;62819;-75
2022/04/14 05:22:25;;;;;;;;;20.00;16.00;;;;;-146.67;100.00;57155.34;5081594;28;61959;-75
2022/04/14 05:24:51;;;;;;;;;23.25;19.00;;;;;-146.67;100.00;57155.34;5081308;27;61799;-76
2022/04/14 05:27:17;;;;;;;;;23.50;20.75;;;;;-146.67;100.00;57155.34;5080495;27;61829;-76
2022/04/14 05:29:42;;;;;;;;;25.50;22.25;;;;;-146.67;100.00;57155.34;5080893;28;63103;-74
2022/04/14 05:32:08;;;;;;;;;25.75;19.00;;;;;-146.67;100.00;57155.34;5081574;28;61932;-75
2022/04/14 05:34:33;;;;;;;;;22.50;22.00;;;;;-146.67;100.00;57155.34;5081322;27;62018;-74
2022/04/14 05:36:59;;;;;;;;;22.50;19.50;;;;;-146.67;100.00;57155.34;5074143;27;61854;-76
2022/04/14 05:39:24;;;;;;;;;28.75;21.50;;;;;-146.67;100.00;57155.34;5082622;27;62765;-76
2022/04/14 05:41:50;;;;;;;;;18.75;16.00;;;;;-146.67;100.00;57155.34;5101999;27;61753;-76
2022/04/14 05:44:17;;;;;;;;;18.75;15.50;;;;;-146.67;100.00;57155.34;5098640;27;62633;-78
2022/04/14 05:46:46;;;;;;;;;20.25;15.25;;;;;-146.67;100.00;57155.34;5096093;27;62089;-76
2022/04/14 05:49:13;;;;;;;;;22.00;17.75;;;;;-146.67;100.00;57155.34;5079816;28;62099;-76
2022/04/14 05:51:38;;;;;;;;;25.00;22.25;;;;;-146.67;100.00;57155.34;5080384;27;62007;-75
2022/04/14 05:54:04;;;;;;;;;19.00;17.75;;;;;-146.67;100.00;57155.34;5079167;28;61921;-75
2022/04/14 05:56:29;;;;;;;;;19.00;16.75;;;;;-146.67;100.00;57155.34;5082801;27;62120;-75
2022/04/14 05:58:54;;;;;;;;;21.00;13.25;;;;;-146.67;100.00;57155.34;5083087;27;61911;-76
2022/04/14 06:01:20;;;;;;;;;22.25;18.00;;;;;-146.67;100.00;57155.34;5083425;27;61945;-76
2022/04/14 06:03:45;;;;;;;;;19.25;18.00;;;;;-146.67;100.00;57155.34;5082082;28;61928;-75
2022/04/14 06:06:13;;;;;;;;;23.25;22.75;;;;;-146.67;100.00;57155.34;5084090;27;62174;-75
2022/04/14 06:08:39;;;;;;;;;31.25;24.75;;;;;-146.67;100.00;57155.34;5083472;27;62576;-74
2022/04/14 06:11:05;;;;;;;;;31.00;28.25;;;;;-146.67;100.00;57155.34;5085534;27;61925;-80
2022/04/14 06:13:31;;;;;;;;;33.25;30.00;;;;;-146.67;100.00;57155.34;5083145;28;61796;-74
2022/04/14 06:15:57;;;;;;;;;30.50;25.00;;;;;-146.67;100.00;57155.34;5084347;27;61793;-79
2022/04/14 06:18:22;;;;;;;;;35.50;32.25;;;;;-146.67;100.00;57155.34;5082382;27;62652;-76
2022/04/14 06:20:50;;;;;;;;;40.00;34.00;;;;;-146.67;100.00;57155.34;5083473;27;62001;-75
2022/04/14 06:23:19;;;;;;;;;26.25;23.00;;;;;-146.67;100.00;57155.34;5084759;28;62434;-80
2022/04/14 06:25:49;;;;;;;;;40.25;25.75;;;;;-146.67;100.00;57155.34;5076434;28;62167;-76
2022/04/14 06:28:16;;;;;;;;;31.50;25.50;;;;;-146.67;100.00;57155.34;5080054;28;63907;-77
2022/04/14 06:30:42;;;;;;;;;27.75;25.00;;;;;-146.67;100.00;57155.34;5082432;27;62064;-76
2022/04/14 06:33:07;;;;;;;;;31.00;21.00;;;;;-146.67;100.00;57155.34;5082481;27;61931;-77
2022/04/14 06:35:33;;;;;;;;;27.50;23.50;;;;;-146.67;100.00;57155.34;5083045;27;61766;-77
2022/04/14 06:37:58;;;;;;;;;32.50;26.25;;;;;-146.67;100.00;57155.34;5084271;27;61734;-78
2022/04/14 06:40:24;;;;;;;;;36.00;28.75;;;;;-146.67;100.00;57155.34;5082795;28;61883;-78
2022/04/14 06:42:49;;;;;;;;;29.00;26.00;;;;;-146.67;100.00;57155.34;5082051;27;61953;-77
2022/04/14 06:45:16;;;;;;;;;30.00;25.00;;;;;-146.67;100.00;57155.34;5083508;27;62029;-76
2022/04/14 06:47:42;;;;;;;;;31.00;29.75;;;;;-146.67;100.00;57155.34;5081741;28;61930;-77
2022/04/14 06:50:08;;;;;;;;;26.25;26.25;;;;;-146.67;100.00;57155.34;5082869;27;61931;-78
2022/04/14 06:52:33;;;;;;;;;33.00;25.75;;;;;-146.67;100.00;57155.34;5083310;28;61887;-76
2022/04/14 06:54:59;;;;;;;;;28.75;24.50;;;;;-146.67;100.00;57155.34;5083097;27;61730;-79
2022/04/14 06:57:25;;;;;;;;;28.25;24.75;;;;;-146.67;100.00;57155.34;5081481;28;61863;-83
2022/04/14 06:59:51;;;;;;;;;33.75;27.50;;;;;-146.67;100.00;57155.34;5082535;27;61861;-85
2022/04/14 07:02:16;;;;;;;;;30.00;27.00;;;;;-146.67;100.00;57155.34;5081713;28;61938;-82
2022/04/14 07:04:42;;;;;;;;;28.75;21.75;;;;;-146.67;100.00;57155.34;5083315;27;62014;-74
2022/04/14 07:07:07;;;;;;;;;29.25;26.50;;;;;-146.67;100.00;57155.34;5073533;27;62570;-73
2022/04/14 07:09:33;;;;;;;;;26.00;26.00;;;;;-146.67;100.00;57155.34;5086369;27;61989;-77
2022/04/14 07:12:01;;;;;;;;;25.00;23.75;;;;;-146.67;100.00;57155.34;5082906;27;61739;-78
2022/04/14 07:14:28;;;;;;;;;30.50;25.00;;;;;-146.67;100.00;57155.34;5099766;27;61812;-85
2022/04/14 07:16:57;;;;;;;;;28.50;27.50;;;;;-146.67;100.00;57155.34;5096601;27;63884;-82
2022/04/14 07:19:23;;;;;;;;;30.25;29.25;;;;;-146.67;100.00;57155.34;5081488;28;61999;-78
2022/04/14 07:21:48;;;;;;;;;29.00;24.50;;;;;-146.67;100.00;57155.34;5082839;28;62004;-79
2022/04/14 07:24:14;;;;;;;;;29.00;26.25;;;;;-146.67;100.00;57155.34;5082271;28;61811;-79
2022/04/14 07:26:40;;;;;;;;;24.00;24.00;;;;;-146.67;100.00;57155.34;5082827;27;61964;-78
2022/04/14 07:29:05;;;;;;;;;36.50;33.25;;;;;-146.67;100.00;57155.34;5083398;27;62752;-77
2022/04/14 07:31:35;;;;;;;;;27.25;25.50;;;;;-146.67;100.00;57155.34;5082570;27;61861;-79
2022/04/14 07:34:02;;;;;;;;;28.25;26.00;;;;;-146.67;100.00;57155.34;5081590;28;61791;-77
2022/04/14 07:36:27;;;;;;;;;30.50;28.00;;;;;-146.67;100.00;57155.34;5082426;27;61763;-77
2022/04/14 07:38:53;;;;;;;;;28.75;27.25;;;;;-146.67;100.00;57155.34;5082399;28;61884;-77
2022/04/14 07:41:18;;;;;;;;;24.00;23.00;;;;;-146.67;100.00;57155.34;5082116;28;61820;-80
2022/04/14 07:43:44;;;;;;;;;29.50;25.00;;;;;-146.67;100.00;57155.34;5082329;27;61879;-74
2022/04/14 07:46:10;;;;;;;;;25.50;23.50;;;;;-146.67;100.00;57155.34;5081206;27;62487;-79
2022/04/14 07:48:36;;;;;;;;;26.75;25.75;;;;;-146.67;100.00;57155.34;5097887;27;62330;-77
2022/04/14 07:51:02;;;;;;;;;28.00;27.25;;;;;-146.67;100.00;57155.34;5081736;28;61936;-75
2022/04/14 07:53:28;;;;;;;;;31.00;23.50;;;;;-146.67;100.00;57155.34;5099549;27;62005;-78
2022/04/14 07:55:54;;;;;;;;;32.00;26.50;;;;;-146.67;100.00;57155.34;5080680;27;61979;-78
2022/04/14 07:58:20;;;;;;;;;32.50;26.00;;;;;-146.67;100.00;57155.34;5081044;27;61931;-76
2022/04/14 08:00:46;;;;;;;;;34.00;26.00;;;;;-146.67;100.00;57155.34;5097316;27;61958;-76
2022/04/14 08:03:13;;;;;;;;;31.25;25.75;;;;;-146.67;100.00;57155.34;5081837;27;61983;-77
2022/04/14 08:05:46;;;;;;;;;47.00;37.00;;;;;-146.67;100.00;57155.34;5081262;28;61880;-78
2022/04/14 08:08:14;;;;;;;;;26.50;24.50;;;;;-146.67;100.00;57155.34;5079912;27;62513;-80
2022/04/14 08:10:41;;;;;;;;;31.50;27.75;;;;;-146.67;100.00;57155.34;5081721;27;61789;-76
2022/04/14 08:13:06;;;;;;;;;30.50;25.75;;;;;-146.67;100.00;57155.34;5097983;27;62017;-76
2022/04/14 08:15:33;;;;;;;;;31.00;28.50;;;;;-146.67;100.00;57155.34;5083873;27;62820;-76
2022/04/14 08:17:59;;;;;;;;;28.75;27.75;;;;;-146.67;100.00;57155.34;5102050;27;61824;-76
2022/04/14 08:20:25;;;;;;;;;33.00;26.50;;;;;-146.67;100.00;57155.34;5102603;27;61841;-76
2022/04/14 08:22:54;;;;;;;;;37.50;34.75;;;;;-146.67;100.00;57155.34;5101152;27;61905;-76
2022/04/14 08:25:22;;;;;;;;;37.00;34.50;;;;;-146.67;100.00;57155.34;5100728;27;64127;-76
2022/04/14 08:27:49;;;;;;;;;34.00;30.25;;;;;-146.67;100.00;57155.34;5102934;27;61880;-76
2022/04/14 08:30:17;;;;;;;;;28.25;26.25;;;;;-146.67;100.00;57155.34;5101662;27;61980;-76
2022/04/14 08:32:43;;;;;;;;;25.00;21.75;;;;;-146.67;100.00;57155.34;5102690;27;61921;-76
2022/04/14 08:35:10;;;;;;;;;24.00;17.75;;;;;-146.67;100.00;57155.34;5101706;27;62596;-76
2022/04/14 08:37:36;;;;;;;;;26.50;19.75;;;;;-146.67;100.00;57155.34;5081057;27;62180;-76
2022/04/14 08:40:09;;;;;;;;;28.00;25.25;;;;;-146.67;100.00;57155.34;5080431;27;62545;-76
2022/04/14 08:42:42;;;;;;;;;23.50;22.00;;;;;-146.67;100.00;57155.34;5082356;27;61778;-76
2022/04/14 08:45:13;;;;;;;;;21.00;19.00;;;;;-146.67;100.00;57155.34;5080805;28;61736;-76
2022/04/14 08:47:40;;;;;;;;;20.75;15.75;;;;;-146.67;100.00;57155.34;5082059;27;62085;-76
2022/04/14 08:50:08;;;;;;;;;20.50;18.50;;;;;-146.67;100.00;57155.34;5081728;27;61874;-76
2022/04/14 08:52:35;;;;;;;;;26.50;23.00;;;;;-146.67;100.00;57155.34;5081809;27;62005;-76
2022/04/14 08:55:04;;;;;;;;;24.75;22.50;;;;;-146.67;100.00;57155.34;5084485;27;62004;-80
2022/04/14 08:57:30;;;;;;;;;23.50;20.25;;;;;-146.67;100.00;57155.34;5084520;27;61849;-80
2022/04/14 08:59:58;;;;;;;;;26.50;22.25;;;;;-146.67;100.00;57155.34;5082305;27;62000;-79
2022/04/14 09:02:24;;;;;;;;;27.25;22.00;;;;;-146.67;100.00;57155.34;5081697;27;61907;-80
2022/04/14 09:04:50;;;;;;;;;22.75;19.50;;;;;-146.67;100.00;57155.34;5071954;27;61946;-80
2022/04/14 09:07:16;;;;;;;;;22.00;19.00;;;;;-146.67;100.00;57155.34;5060891;28;61841;-81
2022/04/14 09:09:42;;;;;;;;;19.25;19.00;;;;;-146.67;100.00;57155.34;5070604;28;61866;-79
2022/04/14 09:12:10;;;;;;;;;21.50;18.00;;;;;-146.67;100.00;57155.34;5080936;27;62269;-80
2022/04/14 09:14:37;;;;;;;;;19.75;18.50;;;;;-146.67;100.00;57155.34;5081126;28;62772;-80
2022/04/14 09:17:06;;;;;;;;;27.00;18.50;;;;;-146.67;100.00;57155.34;5090340;27;62029;-80
2022/04/14 09:19:34;;;;;;;;;26.75;22.50;;;;;-146.67;100.00;57155.34;5078472;27;61962;-84
2022/04/14 09:22:01;;;;;;;;;27.00;24.75;;;;;-146.67;100.00;57155.34;5077097;28;62356;-83
2022/04/14 09:25:14;;;;;;;;;22.50;17.25;;;;;-146.67;100.00;57155.34;5075954;28;63725;-86
2022/04/14 09:27:41;;;;;;;;;23.50;20.75;;;;;-146.67;100.00;57155.34;5069680;28;62101;-83
2022/04/14 09:30:11;;;;;;;;;22.00;19.75;;;;;-146.67;100.00;57155.34;5096917;27;61839;-85
2022/04/14 09:32:44;;;;;;;;;22.00;21.75;;;;;-146.67;100.00;57155.34;5082698;27;61862;-86
2022/04/14 09:35:31;;;;;;;;;15.25;13.75;;;;;-146.67;100.00;57155.34;5082273;28;62827;-85
2022/04/14 09:38:06;;;;;;;;;17.25;14.75;;;;;-146.67;100.00;57155.34;5070122;28;61859;-84
2022/04/14 09:40:37;;;;;;;;;20.75;16.00;;;;;-146.67;100.00;57155.34;5084164;27;61977;-79
2022/04/14 09:43:04;;;;;;;;;12.00;12.00;;;;;-146.67;100.00;57155.34;5084620;27;61862;-78
2022/04/14 09:45:32;;;;;;;;;15.50;12.50;;;;;-146.67;100.00;57155.34;5083545;27;62052;-79
2022/04/14 09:48:13;;;;;;;;;18.25;15.50;;;;;-146.67;100.00;57155.34;5083074;28;62913;-79
2022/04/14 09:50:43;;;;;;;;;12.00;12.00;;;;;-146.67;100.00;57155.34;5083884;28;61735;-79
2022/04/14 09:53:18;;;;;;;;;14.75;12.00;;;;;-146.67;100.00;57155.34;5117456;27;61850;-82
2022/04/14 09:55:50;;;;;;;;;11.25;10.50;;;;;-146.67;100.00;57155.34;5087564;27;61852;-81
2022/04/14 09:58:17;;;;;;;;;15.75;12.75;;;;;-146.67;100.00;57155.34;5084185;27;61807;-82
2022/04/14 10:00:58;;;;;;;;;17.25;14.50;;;;;-146.67;100.00;57155.34;5076691;28;62029;-79
2022/04/14 10:03:30;;;;;;;;;19.00;14.00;;;;;-146.67;100.00;57155.34;5063524;28;62100;-77
2022/04/14 10:06:04;;;;;;;;;11.00;10.75;;;;;-146.67;100.00;57155.34;5066727;28;62830;-75
2022/04/14 10:08:53;;;;;;;;;13.00;13.00;;;;;-146.67;100.00;57155.34;5083865;28;62144;-75
2022/04/14 10:11:29;;;;;;;;;16.00;12.00;;;;;-146.67;100.00;57155.34;5083915;27;62164;-82
2022/04/14 10:14:10;;;;;;;;;14.50;12.00;;;;;-146.67;100.00;57155.34;5084098;27;61749;-81
2022/04/14 10:16:38;;;;;;;;;15.00;12.25;;;;;-146.67;100.00;57155.34;5083323;27;61811;-74
2022/04/14 10:19:04;;;;;;;;;18.25;15.75;;;;;-146.67;100.00;57155.34;5083556;27;62138;-74
2022/04/14 10:21:30;;;;;;;;;9.25;7.00;;;;;-146.67;100.00;57155.34;5083230;27;61811;-75
2022/04/14 10:23:56;;;;;;;;;9.00;8.50;;;;;-146.67;100.00;57155.34;5084113;27;61808;-76
2022/04/14 10:26:21;;;;;;;;;13.00;9.25;;;;;-146.67;100.00;57155.34;5083104;27;62684;-81
2022/04/14 10:28:49;;;;;;;;;10.00;8.25;;;;;-146.67;100.00;57155.34;5083387;28;61923;-75
2022/04/14 10:31:17;;;;;;;;;10.50;10.50;;;;;-146.67;100.00;57155.34;5083887;27;62239;-81
2022/04/14 10:33:45;;;;;;;;;11.50;11.50;;;;;-146.67;100.00;57155.34;5083164;28;62306;-83
2022/04/14 10:36:10;;;;;;;;;13.75;12.00;;;;;-146.67;100.00;57155.34;5074930;27;62083;-88
2022/04/14 10:38:38;;;;;;;;;11.50;9.25;;;;;-146.67;100.00;57155.34;5078248;28;61886;-87
2022/04/14 10:41:15;;;;;;;;;14.75;13.00;;;;;-146.67;100.00;57155.34;5110681;27;61929;-84
2022/04/14 10:43:46;;;;;;;;;11.75;10.25;;;;;-146.67;100.00;57155.34;5101574;27;61799;-81
2022/04/14 10:46:18;;;;;;;;;10.75;10.00;;;;;-146.67;100.00;57155.34;5095998;27;62123;-79
2022/04/14 10:48:45;;;;;;;;;12.50;11.00;;;;;-146.67;100.00;57155.34;5065673;28;62491;-76
2022/04/14 10:51:17;;;;;;;;;11.75;11.50;;;;;-146.67;100.00;57155.34;5082789;28;62276;-76
2022/04/14 10:53:58;;;;;;;;;12.25;12.25;;;;;-146.67;100.00;57155.34;5079754;28;62117;-76